sensor_id;sensor_type;location;lat;lon;timestamp;P1;durP1;ratioP1;P2;durP2;ratioP2
12681;SDS011;6405;59.208;18.216;2023-02-15T00:01:54;11.10;;;7.17;;
12681;SDS011;6405;59.208;18.216;2023-02-15T00:04:21;11.03;;;6.60;;
12681;SDS011;6405;59.208;18.216;2023-02-15T00:06:49;14.67;;;7.33;;
12681;SDS011;6405;59.208;18.216;2023-02-15T00:09:15;10.97;;;6.40;;
12681;SDS011;6405;59.208;18.216;2023-02-15T00:11:41;9.83;;;5.37;;
12681;SDS011;6405;59.208;18.216;2023-02-15T00:16:49;11.00;;;6.23;;
12681;SDS011;6405;59.208;18.216;2023-02-15T00:19:16;10.30;;;6.40;;
12681;SDS011;6405;59.208;18.216;2023-02-15T00:21:43;11.13;;;5.43;;
12681;SDS011;6405;59.208;18.216;2023-02-15T00:24:09;13.43;;;5.90;;
12681;SDS011;6405;59.208;18.216;2023-02-15T00:26:37;10.00;;;5.77;;
12681;SDS011;6405;59.208;18.216;2023-02-15T00:29:04;13.87;;;5.30;;
12681;SDS011;6405;59.208;18.216;2023-02-15T00:31:31;14.03;;;5.30;;
12681;SDS011;6405;59.208;18.216;2023-02-15T00:34:01;13.33;;;5.73;;
12681;SDS011;6405;59.208;18.216;2023-02-15T00:36:31;8.30;;;5.63;;
12681;SDS011;6405;59.208;18.216;2023-02-15T00:38:57;10.33;;;5.33;;
12681;SDS011;6405;59.208;18.216;2023-02-15T00:41:23;10.80;;;5.10;;
12681;SDS011;6405;59.208;18.216;2023-02-15T00:43:48;12.47;;;4.93;;
12681;SDS011;6405;59.208;18.216;2023-02-15T00:46:14;10.47;;;4.87;;
12681;SDS011;6405;59.208;18.216;2023-02-15T00:48:39;7.73;;;5.10;;
12681;SDS011;6405;59.208;18.216;2023-02-15T00:51:05;8.00;;;4.33;;
12681;SDS011;6405;59.208;18.216;2023-02-15T00:53:31;9.77;;;5.30;;
12681;SDS011;6405;59.208;18.216;2023-02-15T00:55:57;8.40;;;5.23;;
12681;SDS011;6405;59.208;18.216;2023-02-15T00:58:23;7.70;;;4.50;;
12681;SDS011;6405;59.208;18.216;2023-02-15T01:00:49;9.13;;;5.00;;
12681;SDS011;6405;59.208;18.216;2023-02-15T01:03:15;8.13;;;4.77;;
12681;SDS011;6405;59.208;18.216;2023-02-15T01:05:43;8.23;;;5.50;;
12681;SDS011;6405;59.208;18.216;2023-02-15T01:08:09;9.33;;;4.57;;
12681;SDS011;6405;59.208;18.216;2023-02-15T01:10:35;12.83;;;6.27;;
12681;SDS011;6405;59.208;18.216;2023-02-15T01:13:01;11.50;;;4.67;;
12681;SDS011;6405;59.208;18.216;2023-02-15T01:15:27;10.30;;;4.60;;
12681;SDS011;6405;59.208;18.216;2023-02-15T01:17:52;6.93;;;4.47;;
12681;SDS011;6405;59.208;18.216;2023-02-15T01:22:49;8.73;;;4.37;;
12681;SDS011;6405;59.208;18.216;2023-02-15T01:25:18;8.90;;;4.40;;
12681;SDS011;6405;59.208;18.216;2023-02-15T01:27:45;7.83;;;4.13;;
12681;SDS011;6405;59.208;18.216;2023-02-15T01:30:12;7.43;;;4.63;;
12681;SDS011;6405;59.208;18.216;2023-02-15T01:32:39;9.03;;;4.27;;
12681;SDS011;6405;59.208;18.216;2023-02-15T01:35:06;7.63;;;4.37;;
12681;SDS011;6405;59.208;18.216;2023-02-15T01:37:32;5.83;;;3.73;;
12681;SDS011;6405;59.208;18.216;2023-02-15T01:39:59;8.17;;;4.10;;
12681;SDS011;6405;59.208;18.216;2023-02-15T01:42:26;9.53;;;4.93;;
12681;SDS011;6405;59.208;18.216;2023-02-15T01:44:54;7.93;;;4.40;;
12681;SDS011;6405;59.208;18.216;2023-02-15T01:47:42;6.87;;;4.53;;
12681;SDS011;6405;59.208;18.216;2023-02-15T01:50:22;8.47;;;4.70;;
12681;SDS011;6405;59.208;18.216;2023-02-15T01:52:58;6.03;;;3.53;;
12681;SDS011;6405;59.208;18.216;2023-02-15T01:55:30;7.17;;;4.30;;
12681;SDS011;6405;59.208;18.216;2023-02-15T01:58:17;7.50;;;4.27;;
12681;SDS011;6405;59.208;18.216;2023-02-15T02:00:44;9.77;;;4.43;;
12681;SDS011;6405;59.208;18.216;2023-02-15T02:03:10;10.17;;;4.43;;
12681;SDS011;6405;59.208;18.216;2023-02-15T02:05:36;6.80;;;3.73;;
12681;SDS011;6405;59.208;18.216;2023-02-15T02:08:03;8.63;;;4.20;;
12681;SDS011;6405;59.208;18.216;2023-02-15T02:10:29;8.07;;;4.70;;
12681;SDS011;6405;59.208;18.216;2023-02-15T02:12:57;10.03;;;4.50;;
12681;SDS011;6405;59.208;18.216;2023-02-15T02:15:37;6.17;;;4.50;;
12681;SDS011;6405;59.208;18.216;2023-02-15T02:32:51;9.07;;;4.13;;
12681;SDS011;6405;59.208;18.216;2023-02-15T02:43:31;7.67;;;4.17;;
12681;SDS011;6405;59.208;18.216;2023-02-15T02:46:20;9.97;;;4.20;;
12681;SDS011;6405;59.208;18.216;2023-02-15T02:48:51;10.17;;;4.60;;
12681;SDS011;6405;59.208;18.216;2023-02-15T02:51:17;11.30;;;4.50;;
12681;SDS011;6405;59.208;18.216;2023-02-15T02:53:47;7.90;;;4.80;;
12681;SDS011;6405;59.208;18.216;2023-02-15T02:59:02;7.67;;;4.67;;
12681;SDS011;6405;59.208;18.216;2023-02-15T03:01:56;14.00;;;4.23;;
12681;SDS011;6405;59.208;18.216;2023-02-15T03:04:34;9.50;;;4.27;;
12681;SDS011;6405;59.208;18.216;2023-02-15T03:07:05;9.70;;;4.43;;
12681;SDS011;6405;59.208;18.216;2023-02-15T03:09:45;8.60;;;4.20;;
12681;SDS011;6405;59.208;18.216;2023-02-15T03:12:15;10.23;;;4.63;;
12681;SDS011;6405;59.208;18.216;2023-02-15T03:14:45;6.63;;;4.00;;
12681;SDS011;6405;59.208;18.216;2023-02-15T03:17:14;7.90;;;4.10;;
12681;SDS011;6405;59.208;18.216;2023-02-15T03:19:42;8.77;;;4.83;;
12681;SDS011;6405;59.208;18.216;2023-02-15T03:22:17;8.17;;;4.67;;
12681;SDS011;6405;59.208;18.216;2023-02-15T03:24:47;8.80;;;4.67;;
12681;SDS011;6405;59.208;18.216;2023-02-15T03:27:22;6.03;;;4.30;;
12681;SDS011;6405;59.208;18.216;2023-02-15T03:29:52;6.07;;;4.30;;
12681;SDS011;6405;59.208;18.216;2023-02-15T03:32:22;9.87;;;4.83;;
12681;SDS011;6405;59.208;18.216;2023-02-15T03:34:50;10.50;;;5.47;;
12681;SDS011;6405;59.208;18.216;2023-02-15T03:40:00;7.93;;;4.93;;
12681;SDS011;6405;59.208;18.216;2023-02-15T03:45:40;10.67;;;5.37;;
12681;SDS011;6405;59.208;18.216;2023-02-15T03:48:26;10.17;;;5.17;;
12681;SDS011;6405;59.208;18.216;2023-02-15T03:50:57;8.67;;;4.80;;
12681;SDS011;6405;59.208;18.216;2023-02-15T03:53:46;13.17;;;5.67;;
12681;SDS011;6405;59.208;18.216;2023-02-15T03:56:14;8.83;;;5.93;;
12681;SDS011;6405;59.208;18.216;2023-02-15T03:58:39;9.83;;;4.90;;
12681;SDS011;6405;59.208;18.216;2023-02-15T04:04:20;8.20;;;5.27;;
12681;SDS011;6405;59.208;18.216;2023-02-15T04:06:48;10.33;;;5.37;;
12681;SDS011;6405;59.208;18.216;2023-02-15T04:09:14;11.73;;;5.87;;
12681;SDS011;6405;59.208;18.216;2023-02-15T04:11:58;11.00;;;5.43;;
12681;SDS011;6405;59.208;18.216;2023-02-15T04:14:24;11.17;;;5.63;;
12681;SDS011;6405;59.208;18.216;2023-02-15T04:17:09;9.90;;;6.07;;
12681;SDS011;6405;59.208;18.216;2023-02-15T04:19:35;11.63;;;5.37;;
12681;SDS011;6405;59.208;18.216;2023-02-15T04:22:19;13.20;;;5.63;;
12681;SDS011;6405;59.208;18.216;2023-02-15T04:25:04;9.43;;;5.33;;
12681;SDS011;6405;59.208;18.216;2023-02-15T04:27:46;10.20;;;5.43;;
12681;SDS011;6405;59.208;18.216;2023-02-15T04:30:15;9.83;;;5.57;;
12681;SDS011;6405;59.208;18.216;2023-02-15T04:32:43;12.90;;;6.37;;
12681;SDS011;6405;59.208;18.216;2023-02-15T04:35:09;12.60;;;6.90;;
12681;SDS011;6405;59.208;18.216;2023-02-15T04:37:36;14.23;;;6.60;;
12681;SDS011;6405;59.208;18.216;2023-02-15T04:40:03;13.33;;;6.17;;
12681;SDS011;6405;59.208;18.216;2023-02-15T04:42:30;12.33;;;6.80;;
12681;SDS011;6405;59.208;18.216;2023-02-15T04:44:56;9.93;;;6.00;;
12681;SDS011;6405;59.208;18.216;2023-02-15T04:47:22;9.70;;;5.83;;
12681;SDS011;6405;59.208;18.216;2023-02-15T04:49:48;13.63;;;6.80;;
12681;SDS011;6405;59.208;18.216;2023-02-15T04:52:14;9.77;;;5.57;;
12681;SDS011;6405;59.208;18.216;2023-02-15T04:54:40;10.13;;;6.10;;
12681;SDS011;6405;59.208;18.216;2023-02-15T04:57:05;11.27;;;6.03;;
12681;SDS011;6405;59.208;18.216;2023-02-15T04:59:31;11.57;;;5.87;;
12681;SDS011;6405;59.208;18.216;2023-02-15T05:01:57;10.70;;;5.50;;
12681;SDS011;6405;59.208;18.216;2023-02-15T05:04:23;11.10;;;6.20;;
12681;SDS011;6405;59.208;18.216;2023-02-15T05:06:49;9.60;;;6.37;;
12681;SDS011;6405;59.208;18.216;2023-02-15T05:09:15;12.17;;;7.03;;
12681;SDS011;6405;59.208;18.216;2023-02-15T05:11:41;12.77;;;7.33;;
12681;SDS011;6405;59.208;18.216;2023-02-15T05:14:07;11.63;;;7.13;;
12681;SDS011;6405;59.208;18.216;2023-02-15T05:16:32;12.37;;;7.47;;
12681;SDS011;6405;59.208;18.216;2023-02-15T05:18:58;14.50;;;7.37;;
12681;SDS011;6405;59.208;18.216;2023-02-15T05:21:24;12.30;;;6.50;;
12681;SDS011;6405;59.208;18.216;2023-02-15T05:23:50;9.80;;;5.80;;
12681;SDS011;6405;59.208;18.216;2023-02-15T05:26:17;12.83;;;7.23;;
12681;SDS011;6405;59.208;18.216;2023-02-15T05:29:03;12.07;;;7.00;;
12681;SDS011;6405;59.208;18.216;2023-02-15T05:31:30;14.27;;;8.00;;
12681;SDS011;6405;59.208;18.216;2023-02-15T05:33:56;13.83;;;6.97;;
12681;SDS011;6405;59.208;18.216;2023-02-15T05:36:22;13.80;;;7.47;;
12681;SDS011;6405;59.208;18.216;2023-02-15T05:38:48;14.50;;;7.40;;
12681;SDS011;6405;59.208;18.216;2023-02-15T05:41:14;15.13;;;7.87;;
12681;SDS011;6405;59.208;18.216;2023-02-15T05:43:39;11.93;;;6.80;;
12681;SDS011;6405;59.208;18.216;2023-02-15T05:46:05;13.37;;;7.17;;
12681;SDS011;6405;59.208;18.216;2023-02-15T05:48:31;12.07;;;7.70;;
12681;SDS011;6405;59.208;18.216;2023-02-15T05:51:04;12.20;;;7.43;;
12681;SDS011;6405;59.208;18.216;2023-02-15T05:53:32;11.60;;;6.93;;
12681;SDS011;6405;59.208;18.216;2023-02-15T05:55:59;11.47;;;7.13;;
12681;SDS011;6405;59.208;18.216;2023-02-15T05:58:28;12.50;;;7.20;;
12681;SDS011;6405;59.208;18.216;2023-02-15T06:00:58;11.00;;;7.57;;
12681;SDS011;6405;59.208;18.216;2023-02-15T06:03:23;13.40;;;8.70;;
12681;SDS011;6405;59.208;18.216;2023-02-15T06:05:50;13.37;;;8.17;;
12681;SDS011;6405;59.208;18.216;2023-02-15T06:08:17;13.70;;;7.03;;
12681;SDS011;6405;59.208;18.216;2023-02-15T06:10:42;13.77;;;7.67;;
12681;SDS011;6405;59.208;18.216;2023-02-15T06:13:10;14.70;;;7.77;;
12681;SDS011;6405;59.208;18.216;2023-02-15T06:15:35;14.00;;;7.23;;
12681;SDS011;6405;59.208;18.216;2023-02-15T06:18:01;14.87;;;7.90;;
12681;SDS011;6405;59.208;18.216;2023-02-15T06:20:27;12.57;;;7.33;;
12681;SDS011;6405;59.208;18.216;2023-02-15T06:22:52;13.00;;;7.27;;
12681;SDS011;6405;59.208;18.216;2023-02-15T06:25:18;15.23;;;7.57;;
12681;SDS011;6405;59.208;18.216;2023-02-15T06:27:44;14.37;;;7.97;;
12681;SDS011;6405;59.208;18.216;2023-02-15T06:30:10;12.73;;;6.83;;
12681;SDS011;6405;59.208;18.216;2023-02-15T06:32:36;11.93;;;6.63;;
12681;SDS011;6405;59.208;18.216;2023-02-15T06:35:02;12.47;;;7.27;;
12681;SDS011;6405;59.208;18.216;2023-02-15T06:37:28;15.47;;;8.03;;
12681;SDS011;6405;59.208;18.216;2023-02-15T06:39:54;14.47;;;10.47;;
12681;SDS011;6405;59.208;18.216;2023-02-15T06:42:20;13.47;;;8.37;;
12681;SDS011;6405;59.208;18.216;2023-02-15T06:44:46;13.43;;;7.30;;
12681;SDS011;6405;59.208;18.216;2023-02-15T06:47:12;13.40;;;8.03;;
12681;SDS011;6405;59.208;18.216;2023-02-15T06:49:37;13.80;;;8.03;;
12681;SDS011;6405;59.208;18.216;2023-02-15T06:52:03;14.23;;;7.90;;
12681;SDS011;6405;59.208;18.216;2023-02-15T06:54:29;12.93;;;7.57;;
12681;SDS011;6405;59.208;18.216;2023-02-15T06:56:55;14.20;;;8.97;;
12681;SDS011;6405;59.208;18.216;2023-02-15T06:59:20;11.60;;;7.03;;
12681;SDS011;6405;59.208;18.216;2023-02-15T07:01:46;14.30;;;7.97;;
12681;SDS011;6405;59.208;18.216;2023-02-15T07:04:12;11.23;;;7.03;;
12681;SDS011;6405;59.208;18.216;2023-02-15T07:06:38;16.07;;;8.50;;
12681;SDS011;6405;59.208;18.216;2023-02-15T07:09:03;11.50;;;7.83;;
12681;SDS011;6405;59.208;18.216;2023-02-15T07:11:29;14.40;;;7.53;;
12681;SDS011;6405;59.208;18.216;2023-02-15T07:14:13;13.60;;;7.60;;
12681;SDS011;6405;59.208;18.216;2023-02-15T07:16:39;12.40;;;8.30;;
12681;SDS011;6405;59.208;18.216;2023-02-15T07:19:05;13.50;;;7.60;;
12681;SDS011;6405;59.208;18.216;2023-02-15T07:21:32;13.33;;;8.13;;
12681;SDS011;6405;59.208;18.216;2023-02-15T07:23:58;12.33;;;7.03;;
12681;SDS011;6405;59.208;18.216;2023-02-15T07:26:24;13.50;;;7.57;;
12681;SDS011;6405;59.208;18.216;2023-02-15T07:28:50;17.10;;;8.67;;
12681;SDS011;6405;59.208;18.216;2023-02-15T07:31:16;12.30;;;7.37;;
12681;SDS011;6405;59.208;18.216;2023-02-15T07:33:42;13.90;;;7.40;;
12681;SDS011;6405;59.208;18.216;2023-02-15T07:36:08;12.60;;;7.60;;
12681;SDS011;6405;59.208;18.216;2023-02-15T07:38:37;9.50;;;6.80;;
12681;SDS011;6405;59.208;18.216;2023-02-15T07:41:05;12.90;;;7.23;;
12681;SDS011;6405;59.208;18.216;2023-02-15T07:43:36;11.10;;;7.30;;
12681;SDS011;6405;59.208;18.216;2023-02-15T07:46:04;12.73;;;7.77;;
12681;SDS011;6405;59.208;18.216;2023-02-15T07:48:35;11.43;;;6.50;;
12681;SDS011;6405;59.208;18.216;2023-02-15T07:51:02;11.17;;;7.07;;
12681;SDS011;6405;59.208;18.216;2023-02-15T07:53:29;13.10;;;6.87;;
12681;SDS011;6405;59.208;18.216;2023-02-15T07:55:58;12.37;;;6.77;;
12681;SDS011;6405;59.208;18.216;2023-02-15T07:58:31;12.10;;;6.73;;
12681;SDS011;6405;59.208;18.216;2023-02-15T08:01:16;12.87;;;6.73;;
12681;SDS011;6405;59.208;18.216;2023-02-15T08:04:02;11.40;;;6.40;;
12681;SDS011;6405;59.208;18.216;2023-02-15T08:06:29;12.97;;;6.93;;
12681;SDS011;6405;59.208;18.216;2023-02-15T08:08:56;13.33;;;6.77;;
12681;SDS011;6405;59.208;18.216;2023-02-15T08:11:23;11.23;;;7.00;;
12681;SDS011;6405;59.208;18.216;2023-02-15T08:18:58;11.83;;;7.33;;
12681;SDS011;6405;59.208;18.216;2023-02-15T08:21:25;14.83;;;7.03;;
12681;SDS011;6405;59.208;18.216;2023-02-15T08:23:53;13.27;;;7.33;;
12681;SDS011;6405;59.208;18.216;2023-02-15T08:26:19;11.27;;;6.83;;
12681;SDS011;6405;59.208;18.216;2023-02-15T08:28:46;12.20;;;6.83;;
12681;SDS011;6405;59.208;18.216;2023-02-15T08:31:12;14.00;;;6.90;;
12681;SDS011;6405;59.208;18.216;2023-02-15T08:33:39;11.67;;;6.83;;
12681;SDS011;6405;59.208;18.216;2023-02-15T08:36:06;9.87;;;6.23;;
12681;SDS011;6405;59.208;18.216;2023-02-15T08:38:33;11.63;;;6.60;;
12681;SDS011;6405;59.208;18.216;2023-02-15T08:41:22;11.53;;;6.83;;
12681;SDS011;6405;59.208;18.216;2023-02-15T08:43:51;13.27;;;7.10;;
12681;SDS011;6405;59.208;18.216;2023-02-15T08:46:21;11.67;;;6.90;;
12681;SDS011;6405;59.208;18.216;2023-02-15T08:48:48;10.70;;;6.43;;
12681;SDS011;6405;59.208;18.216;2023-02-15T08:51:24;10.80;;;6.37;;
12681;SDS011;6405;59.208;18.216;2023-02-15T08:53:52;9.63;;;6.30;;
12681;SDS011;6405;59.208;18.216;2023-02-15T08:56:20;13.43;;;6.27;;
12681;SDS011;6405;59.208;18.216;2023-02-15T08:58:48;9.27;;;6.10;;
12681;SDS011;6405;59.208;18.216;2023-02-15T09:01:15;13.00;;;6.57;;
12681;SDS011;6405;59.208;18.216;2023-02-15T09:03:46;12.87;;;6.87;;
12681;SDS011;6405;59.208;18.216;2023-02-15T09:06:13;11.87;;;6.47;;
12681;SDS011;6405;59.208;18.216;2023-02-15T09:08:40;11.77;;;6.33;;
12681;SDS011;6405;59.208;18.216;2023-02-15T09:11:09;10.10;;;6.50;;
12681;SDS011;6405;59.208;18.216;2023-02-15T09:13:37;11.40;;;6.40;;
12681;SDS011;6405;59.208;18.216;2023-02-15T09:16:05;9.93;;;5.93;;
12681;SDS011;6405;59.208;18.216;2023-02-15T09:18:33;10.03;;;6.20;;
12681;SDS011;6405;59.208;18.216;2023-02-15T09:21:08;9.70;;;5.97;;
12681;SDS011;6405;59.208;18.216;2023-02-15T09:23:38;10.27;;;7.13;;
12681;SDS011;6405;59.208;18.216;2023-02-15T09:26:09;7.93;;;5.53;;
12681;SDS011;6405;59.208;18.216;2023-02-15T09:28:36;9.90;;;5.90;;
12681;SDS011;6405;59.208;18.216;2023-02-15T09:31:12;9.30;;;6.13;;
12681;SDS011;6405;59.208;18.216;2023-02-15T09:33:40;8.47;;;5.67;;
12681;SDS011;6405;59.208;18.216;2023-02-15T09:36:13;8.10;;;5.40;;
12681;SDS011;6405;59.208;18.216;2023-02-15T09:38:41;8.07;;;5.80;;
12681;SDS011;6405;59.208;18.216;2023-02-15T09:41:26;8.23;;;4.50;;
12681;SDS011;6405;59.208;18.216;2023-02-15T09:46:54;9.97;;;6.17;;
12681;SDS011;6405;59.208;18.216;2023-02-15T10:03:13;9.63;;;5.43;;
12681;SDS011;6405;59.208;18.216;2023-02-15T10:08:36;9.43;;;5.37;;
12681;SDS011;6405;59.208;18.216;2023-02-15T10:19:37;10.43;;;5.87;;
12681;SDS011;6405;59.208;18.216;2023-02-15T10:27:47;8.47;;;5.10;;
12681;SDS011;6405;59.208;18.216;2023-02-15T10:30:15;8.20;;;4.93;;
12681;SDS011;6405;59.208;18.216;2023-02-15T10:32:59;10.53;;;5.23;;
12681;SDS011;6405;59.208;18.216;2023-02-15T10:35:31;9.37;;;5.40;;
12681;SDS011;6405;59.208;18.216;2023-02-15T10:38:20;7.30;;;3.53;;
12681;SDS011;6405;59.208;18.216;2023-02-15T10:49:26;10.07;;;5.37;;
12681;SDS011;6405;59.208;18.216;2023-02-15T10:52:19;7.43;;;4.47;;
12681;SDS011;6405;59.208;18.216;2023-02-15T10:55:17;7.80;;;4.60;;
12681;SDS011;6405;59.208;18.216;2023-02-15T10:57:55;8.43;;;5.30;;
12681;SDS011;6405;59.208;18.216;2023-02-15T11:03:05;10.40;;;5.20;;
12681;SDS011;6405;59.208;18.216;2023-02-15T11:05:45;8.20;;;5.23;;
12681;SDS011;6405;59.208;18.216;2023-02-15T11:08:25;7.53;;;4.80;;
12681;SDS011;6405;59.208;18.216;2023-02-15T11:10:56;9.20;;;5.63;;
12681;SDS011;6405;59.208;18.216;2023-02-15T11:13:27;7.43;;;4.90;;
12681;SDS011;6405;59.208;18.216;2023-02-15T11:16:06;10.43;;;4.93;;
12681;SDS011;6405;59.208;18.216;2023-02-15T11:18:36;8.87;;;4.90;;
12681;SDS011;6405;59.208;18.216;2023-02-15T11:24:07;8.33;;;4.83;;
12681;SDS011;6405;59.208;18.216;2023-02-15T11:26:41;10.17;;;5.17;;
12681;SDS011;6405;59.208;18.216;2023-02-15T11:29:21;10.77;;;5.73;;
12681;SDS011;6405;59.208;18.216;2023-02-15T11:31:53;7.17;;;4.87;;
12681;SDS011;6405;59.208;18.216;2023-02-15T11:34:34;7.30;;;4.83;;
12681;SDS011;6405;59.208;18.216;2023-02-15T11:37:13;10.07;;;5.17;;
12681;SDS011;6405;59.208;18.216;2023-02-15T11:39:44;12.07;;;5.57;;
12681;SDS011;6405;59.208;18.216;2023-02-15T11:42:17;9.90;;;5.47;;
12681;SDS011;6405;59.208;18.216;2023-02-15T11:47:38;12.10;;;5.57;;
12681;SDS011;6405;59.208;18.216;2023-02-15T11:50:04;7.93;;;5.37;;
12681;SDS011;6405;59.208;18.216;2023-02-15T11:52:30;11.27;;;6.50;;
12681;SDS011;6405;59.208;18.216;2023-02-15T11:54:56;8.47;;;5.37;;
12681;SDS011;6405;59.208;18.216;2023-02-15T12:00:23;8.90;;;5.93;;
12681;SDS011;6405;59.208;18.216;2023-02-15T12:02:56;9.93;;;6.13;;
12681;SDS011;6405;59.208;18.216;2023-02-15T12:05:23;9.50;;;6.03;;
12681;SDS011;6405;59.208;18.216;2023-02-15T12:07:52;11.53;;;6.10;;
12681;SDS011;6405;59.208;18.216;2023-02-15T12:10:30;9.13;;;6.20;;
12681;SDS011;6405;59.208;18.216;2023-02-15T12:13:11;10.03;;;5.80;;
12681;SDS011;6405;59.208;18.216;2023-02-15T12:15:42;11.50;;;7.03;;
12681;SDS011;6405;59.208;18.216;2023-02-15T12:21:07;12.77;;;6.70;;
12681;SDS011;6405;59.208;18.216;2023-02-15T12:23:43;11.80;;;6.67;;
12681;SDS011;6405;59.208;18.216;2023-02-15T12:26:13;11.63;;;6.03;;
12681;SDS011;6405;59.208;18.216;2023-02-15T12:28:42;11.67;;;6.90;;
12681;SDS011;6405;59.208;18.216;2023-02-15T12:31:19;10.67;;;6.50;;
12681;SDS011;6405;59.208;18.216;2023-02-15T12:33:46;13.10;;;6.80;;
12681;SDS011;6405;59.208;18.216;2023-02-15T12:36:17;10.80;;;6.17;;
12681;SDS011;6405;59.208;18.216;2023-02-15T12:41:38;15.03;;;7.83;;
12681;SDS011;6405;59.208;18.216;2023-02-15T12:44:17;13.47;;;7.63;;
12681;SDS011;6405;59.208;18.216;2023-02-15T12:47:00;15.13;;;7.50;;
12681;SDS011;6405;59.208;18.216;2023-02-15T12:49:32;14.13;;;7.80;;
12681;SDS011;6405;59.208;18.216;2023-02-15T12:52:00;15.90;;;8.57;;
12681;SDS011;6405;59.208;18.216;2023-02-15T12:57:14;18.60;;;7.27;;
12681;SDS011;6405;59.208;18.216;2023-02-15T12:59:51;14.37;;;7.23;;
12681;SDS011;6405;59.208;18.216;2023-02-15T13:05:18;11.23;;;6.47;;
12681;SDS011;6405;59.208;18.216;2023-02-15T13:08:01;12.03;;;6.63;;
12681;SDS011;6405;59.208;18.216;2023-02-15T13:10:28;10.53;;;6.70;;
12681;SDS011;6405;59.208;18.216;2023-02-15T13:12:58;12.73;;;6.10;;
12681;SDS011;6405;59.208;18.216;2023-02-15T13:17:51;10.13;;;6.47;;
12681;SDS011;6405;59.208;18.216;2023-02-15T13:20:20;12.00;;;6.57;;
12681;SDS011;6405;59.208;18.216;2023-02-15T13:22:48;10.77;;;6.80;;
12681;SDS011;6405;59.208;18.216;2023-02-15T13:25:18;9.67;;;6.13;;
12681;SDS011;6405;59.208;18.216;2023-02-15T13:27:51;14.47;;;7.43;;
12681;SDS011;6405;59.208;18.216;2023-02-15T13:30:22;10.07;;;6.73;;
12681;SDS011;6405;59.208;18.216;2023-02-15T13:32:48;11.00;;;6.53;;
12681;SDS011;6405;59.208;18.216;2023-02-15T13:35:17;10.87;;;6.60;;
12681;SDS011;6405;59.208;18.216;2023-02-15T13:40:37;11.67;;;6.63;;
12681;SDS011;6405;59.208;18.216;2023-02-15T13:43:25;10.17;;;6.13;;
12681;SDS011;6405;59.208;18.216;2023-02-15T13:51:42;12.30;;;6.47;;
12681;SDS011;6405;59.208;18.216;2023-02-15T14:00:21;10.40;;;6.50;;
12681;SDS011;6405;59.208;18.216;2023-02-15T14:03:06;10.23;;;6.47;;
12681;SDS011;6405;59.208;18.216;2023-02-15T14:11:07;9.00;;;5.47;;
12681;SDS011;6405;59.208;18.216;2023-02-15T14:16:32;9.10;;;5.87;;
12681;SDS011;6405;59.208;18.216;2023-02-15T14:21:34;11.33;;;5.67;;
12681;SDS011;6405;59.208;18.216;2023-02-15T14:26:57;10.40;;;4.90;;
12681;SDS011;6405;59.208;18.216;2023-02-15T14:34:48;10.57;;;5.60;;
12681;SDS011;6405;59.208;18.216;2023-02-15T14:37:19;10.00;;;5.43;;
12681;SDS011;6405;59.208;18.216;2023-02-15T14:39:57;9.10;;;5.10;;
12681;SDS011;6405;59.208;18.216;2023-02-15T14:42:51;10.00;;;5.10;;
12681;SDS011;6405;59.208;18.216;2023-02-15T14:45:29;7.37;;;4.63;;
12681;SDS011;6405;59.208;18.216;2023-02-15T14:48:21;11.23;;;5.47;;
12681;SDS011;6405;59.208;18.216;2023-02-15T14:50:55;9.30;;;5.20;;
12681;SDS011;6405;59.208;18.216;2023-02-15T14:53:37;8.60;;;5.03;;
12681;SDS011;6405;59.208;18.216;2023-02-15T15:01:17;10.00;;;5.87;;
12681;SDS011;6405;59.208;18.216;2023-02-15T15:04:01;9.77;;;5.50;;
12681;SDS011;6405;59.208;18.216;2023-02-15T15:06:34;12.63;;;5.70;;
12681;SDS011;6405;59.208;18.216;2023-02-15T15:09:11;12.73;;;5.73;;
12681;SDS011;6405;59.208;18.216;2023-02-15T15:11:39;8.17;;;5.43;;
12681;SDS011;6405;59.208;18.216;2023-02-15T15:14:07;16.83;;;6.10;;
12681;SDS011;6405;59.208;18.216;2023-02-15T15:19:09;11.03;;;5.63;;
12681;SDS011;6405;59.208;18.216;2023-02-15T15:27:42;10.57;;;6.43;;
12681;SDS011;6405;59.208;18.216;2023-02-15T15:35:36;9.57;;;5.33;;
12681;SDS011;6405;59.208;18.216;2023-02-15T15:44:20;8.70;;;5.50;;
12681;SDS011;6405;59.208;18.216;2023-02-15T15:49:41;8.57;;;5.30;;
12681;SDS011;6405;59.208;18.216;2023-02-15T15:52:17;7.60;;;5.63;;
12681;SDS011;6405;59.208;18.216;2023-02-15T15:54:46;9.33;;;6.10;;
12681;SDS011;6405;59.208;18.216;2023-02-15T15:57:17;10.83;;;6.60;;
12681;SDS011;6405;59.208;18.216;2023-02-15T15:59:50;8.60;;;5.47;;
12681;SDS011;6405;59.208;18.216;2023-02-15T16:02:16;9.73;;;6.60;;
12681;SDS011;6405;59.208;18.216;2023-02-15T16:04:43;10.43;;;7.03;;
12681;SDS011;6405;59.208;18.216;2023-02-15T16:07:30;11.17;;;6.73;;
12681;SDS011;6405;59.208;18.216;2023-02-15T16:10:00;9.00;;;5.80;;
12681;SDS011;6405;59.208;18.216;2023-02-15T16:12:33;11.73;;;6.53;;
12681;SDS011;6405;59.208;18.216;2023-02-15T16:15:04;10.00;;;6.93;;
12681;SDS011;6405;59.208;18.216;2023-02-15T16:17:41;10.00;;;6.03;;
12681;SDS011;6405;59.208;18.216;2023-02-15T16:20:19;10.67;;;6.07;;
12681;SDS011;6405;59.208;18.216;2023-02-15T16:22:57;13.13;;;6.77;;
12681;SDS011;6405;59.208;18.216;2023-02-15T16:28:30;10.17;;;5.93;;
12681;SDS011;6405;59.208;18.216;2023-02-15T16:31:06;9.50;;;6.03;;
12681;SDS011;6405;59.208;18.216;2023-02-15T16:33:43;10.50;;;6.17;;
12681;SDS011;6405;59.208;18.216;2023-02-15T16:36:10;9.47;;;6.30;;
12681;SDS011;6405;59.208;18.216;2023-02-15T16:41:10;8.53;;;5.77;;
12681;SDS011;6405;59.208;18.216;2023-02-15T16:43:38;11.27;;;6.13;;
12681;SDS011;6405;59.208;18.216;2023-02-15T16:46:09;9.10;;;6.03;;
12681;SDS011;6405;59.208;18.216;2023-02-15T16:48:42;10.13;;;5.80;;
12681;SDS011;6405;59.208;18.216;2023-02-15T16:51:10;8.93;;;5.50;;
12681;SDS011;6405;59.208;18.216;2023-02-15T16:53:46;8.77;;;5.57;;
12681;SDS011;6405;59.208;18.216;2023-02-15T16:56:13;11.90;;;6.43;;
12681;SDS011;6405;59.208;18.216;2023-02-15T16:58:41;10.83;;;5.63;;
12681;SDS011;6405;59.208;18.216;2023-02-15T17:01:10;9.20;;;5.37;;
12681;SDS011;6405;59.208;18.216;2023-02-15T17:03:40;12.07;;;5.57;;
12681;SDS011;6405;59.208;18.216;2023-02-15T17:06:20;11.17;;;6.67;;
12681;SDS011;6405;59.208;18.216;2023-02-15T17:08:47;10.27;;;7.67;;
12681;SDS011;6405;59.208;18.216;2023-02-15T17:11:16;10.80;;;7.23;;
12681;SDS011;6405;59.208;18.216;2023-02-15T17:19:19;9.90;;;5.53;;
12681;SDS011;6405;59.208;18.216;2023-02-15T17:22:14;9.73;;;6.30;;
12681;SDS011;6405;59.208;18.216;2023-02-15T17:24:42;9.67;;;5.60;;
12681;SDS011;6405;59.208;18.216;2023-02-15T17:27:14;10.07;;;6.07;;
12681;SDS011;6405;59.208;18.216;2023-02-15T17:29:56;7.60;;;5.40;;
12681;SDS011;6405;59.208;18.216;2023-02-15T17:32:25;8.30;;;5.10;;
12681;SDS011;6405;59.208;18.216;2023-02-15T17:42:52;10.43;;;5.70;;
12681;SDS011;6405;59.208;18.216;2023-02-15T17:45:18;8.70;;;5.53;;
12681;SDS011;6405;59.208;18.216;2023-02-15T17:47:44;14.87;;;5.60;;
12681;SDS011;6405;59.208;18.216;2023-02-15T17:50:22;11.60;;;5.67;;
12681;SDS011;6405;59.208;18.216;2023-02-15T17:52:49;8.00;;;5.53;;
12681;SDS011;6405;59.208;18.216;2023-02-15T17:55:17;10.23;;;5.60;;
12681;SDS011;6405;59.208;18.216;2023-02-15T17:58:07;8.87;;;5.37;;
12681;SDS011;6405;59.208;18.216;2023-02-15T18:00:47;9.03;;;5.40;;
12681;SDS011;6405;59.208;18.216;2023-02-15T18:03:44;8.10;;;5.10;;
12681;SDS011;6405;59.208;18.216;2023-02-15T18:06:33;11.70;;;5.47;;
12681;SDS011;6405;59.208;18.216;2023-02-15T18:09:19;6.83;;;4.20;;
12681;SDS011;6405;59.208;18.216;2023-02-15T18:12:16;9.93;;;5.63;;
12681;SDS011;6405;59.208;18.216;2023-02-15T18:14:43;6.30;;;4.43;;
12681;SDS011;6405;59.208;18.216;2023-02-15T18:17:10;7.17;;;4.57;;